Time;durP1;ratioP1;P1;durP2;ratioP2;P2;SDS_P1;SDS_P2;PMS_P1;PMS_P2;Temp;Humidity;BMP_temperature;BMP_pressure;BME280_temperature;BME280_humidity;BME280_pressure;Samples;Min_cycle;Max_cycle;Signal;HPM_P1;HPM_P2
2022/06/10 00:00:51;;;;;;;2.65;1.58;;;13.20;99.90;;;;;;5067343;28;20226;-63
2022/06/10 00:03:18;;;;;;;1.60;1.50;;;13.20;99.90;;;;;;5073407;28;20186;-63
2022/06/10 00:05:47;;;;;;;2.85;1.40;;;13.20;99.90;;;;;;5073781;28;20187;-63
2022/06/10 00:08:16;;;;;;;2.50;1.48;;;13.20;99.90;;;;;;5073355;28;20169;-63
2022/06/10 00:10:41;;;;;;;1.50;1.40;;;13.20;99.90;;;;;;5064746;28;20192;-63
2022/06/10 00:13:07;;;;;;;1.60;1.50;;;13.20;99.90;;;;;;5073995;28;20227;-63
2022/06/10 00:15:33;;;;;;;1.55;1.45;;;13.20;99.90;;;;;;5073180;28;20594;-63
2022/06/10 00:18:00;;;;;;;1.30;1.20;;;13.30;99.90;;;;;;5073742;28;20193;-63
2022/06/10 00:20:28;;;;;;;2.50;2.20;;;13.30;99.90;;;;;;5072842;28;20363;-63
2022/06/10 00:22:54;;;;;;;3.03;1.50;;;13.20;99.90;;;;;;5069035;28;20705;-63
2022/06/10 00:25:20;;;;;;;1.63;1.38;;;13.20;99.90;;;;;;5073646;28;20270;-63
2022/06/10 00:27:46;;;;;;;2.70;1.40;;;13.20;99.90;;;;;;5073251;28;20304;-63
2022/06/10 00:30:12;;;;;;;1.67;1.40;;;13.20;99.90;;;;;;5073375;28;20537;-63
2022/06/10 00:32:38;;;;;;;3.10;1.58;;;13.20;99.90;;;;;;5073793;28;20725;-63
2022/06/10 00:35:05;;;;;;;1.40;1.30;;;13.10;99.90;;;;;;5073290;28;20217;-63
2022/06/10 00:37:31;;;;;;;1.95;1.35;;;13.10;99.90;;;;;;5072741;28;20651;-63
2022/06/10 00:39:57;;;;;;;1.73;1.33;;;13.10;99.90;;;;;;5073186;28;20189;-63
2022/06/10 00:42:22;;;;;;;1.52;1.25;;;13.10;99.90;;;;;;5073058;28;20177;-63
2022/06/10 00:44:52;;;;;;;1.60;1.25;;;13.00;99.90;;;;;;5073567;28;20230;-63
2022/06/10 00:47:39;;;;;;;1.92;1.50;;;13.00;99.90;;;;;;5071720;28;20544;-63
2022/06/10 00:50:24;;;;;;;3.13;1.10;;;12.90;99.90;;;;;;5072480;28;20185;-63
2022/06/10 00:53:00;;;;;;;1.95;1.40;;;12.90;99.90;;;;;;5072992;28;20180;-63
2022/06/10 00:55:29;;;;;;;2.90;1.70;;;12.90;99.90;;;;;;5072958;28;20610;-63
2022/06/10 00:58:23;;;;;;;5.43;1.75;;;12.80;99.90;;;;;;5072463;28;20651;-63
2022/06/10 01:00:48;;;;;;;1.50;1.40;;;12.80;99.90;;;;;;5072450;28;20192;-63
2022/06/10 01:03:14;;;;;;;4.22;1.70;;;12.80;99.90;;;;;;5073014;28;20191;-63
2022/06/10 01:05:40;;;;;;;2.65;1.42;;;12.70;99.90;;;;;;5072378;28;20193;-63
2022/06/10 01:08:11;;;;;;;3.58;1.77;;;12.80;99.90;;;;;;5072505;28;20180;-63
2022/06/10 01:11:09;;;;;;;2.67;1.80;;;12.80;99.90;;;;;;5072486;28;20187;-63
2022/06/10 01:14:08;;;;;;;7.20;2.97;;;12.70;99.90;;;;;;5072555;28;20177;-63
2022/06/10 01:16:43;;;;;;;8.75;3.90;;;12.80;99.90;;;;;;5072172;28;20202;-63
2022/06/10 01:19:33;;;;;;;10.52;3.90;;;12.70;99.90;;;;;;5072353;28;20254;-63
2022/06/10 01:22:28;;;;;;;8.32;3.47;;;12.70;99.90;;;;;;5072242;28;20188;-63
2022/06/10 01:25:00;;;;;;;2.95;2.25;;;12.70;99.90;;;;;;5062333;28;20177;-63
2022/06/10 01:27:50;;;;;;;4.45;1.80;;;12.70;99.90;;;;;;5072056;28;20181;-63
2022/06/10 01:30:35;;;;;;;5.10;2.17;;;12.70;99.90;;;;;;5053638;28;20194;-63
2022/06/10 01:33:19;;;;;;;5.95;2.10;;;12.70;99.90;;;;;;5071992;28;20656;-63
2022/06/10 01:36:00;;;;;;;2.63;1.58;;;12.70;99.90;;;;;;5072144;28;20201;-63
2022/06/10 01:38:35;;;;;;;6.15;2.92;;;12.70;99.90;;;;;;5071936;28;20212;-63
2022/06/10 01:41:14;;;;;;;2.65;1.77;;;12.70;99.90;;;;;;5056736;28;20177;-63
2022/06/10 01:44:09;;;;;;;2.30;1.70;;;12.60;99.90;;;;;;5071871;28;20322;-63
2022/06/10 01:46:39;;;;;;;1.73;1.63;;;12.50;99.90;;;;;;5071903;28;20181;-63
2022/06/10 01:49:44;;;;;;;4.60;1.63;;;12.50;99.90;;;;;;5071820;28;20189;-63
2022/06/10 01:52:21;;;;;;;2.90;1.33;;;12.50;99.90;;;;;;5056591;28;20226;-64
2022/06/10 01:54:55;;;;;;;4.45;1.58;;;12.50;99.90;;;;;;5070503;28;20176;-63
2022/06/10 01:57:35;;;;;;;1.83;1.52;;;12.40;99.90;;;;;;5070748;28;20267;-63
2022/06/10 02:00:14;;;;;;;1.42;1.33;;;12.40;99.90;;;;;;5071834;28;20235;-63
2022/06/10 02:02:47;;;;;;;1.75;1.50;;;12.40;99.90;;;;;;5071953;28;20184;-63
2022/06/10 02:05:19;;;;;;;17.90;7.20;;;12.40;99.90;;;;;;5071596;28;20227;-63
2022/06/10 02:08:27;;;;;;;17.48;6.90;;;12.40;99.90;;;;;;5071631;28;20176;-63
2022/06/10 02:10:56;;;;;;;13.88;6.22;;;12.40;99.90;;;;;;5021913;28;20182;-63
2022/06/10 02:13:27;;;;;;;12.23;5.20;;;12.30;99.90;;;;;;5026715;28;20665;-63
2022/06/10 02:15:58;;;;;;;12.45;4.97;;;12.30;99.90;;;;;;5053030;28;20276;-64
2022/06/10 02:18:32;;;;;;;10.75;4.60;;;12.30;99.90;;;;;;5071312;28;20208;-63
2022/06/10 02:21:18;;;;;;;14.23;4.20;;;12.30;99.90;;;;;;5071298;28;20584;-63
2022/06/10 02:23:51;;;;;;;9.85;3.25;;;12.30;99.90;;;;;;5071547;28;20655;-63
2022/06/10 02:26:17;;;;;;;13.65;4.85;;;12.20;99.90;;;;;;5057318;28;20185;-63
2022/06/10 02:28:49;;;;;;;16.50;5.97;;;12.30;99.90;;;;;;5071505;28;20543;-63
2022/06/10 02:31:54;;;;;;;10.55;4.63;;;12.20;99.90;;;;;;5071291;28;20183;-63
2022/06/10 02:34:19;;;;;;;10.77;4.38;;;12.20;99.90;;;;;;5049067;28;20268;-63
2022/06/10 02:37:09;;;;;;;13.00;6.30;;;12.20;99.90;;;;;;5067426;28;20268;-63
2022/06/10 02:39:52;;;;;;;25.38;11.20;;;12.20;99.90;;;;;;5066155;28;20573;-63
2022/06/10 02:42:27;;;;;;;12.85;6.05;;;12.20;99.90;;;;;;5056923;28;20196;-63
2022/06/10 02:45:22;;;;;;;5.72;2.65;;;12.20;99.90;;;;;;5071440;28;20643;-63
2022/06/10 02:48:19;;;;;;;3.83;2.58;;;12.10;99.90;;;;;;5071428;28;20298;-63
2022/06/10 02:50:45;;;;;;;3.75;2.22;;;12.10;99.90;;;;;;5060996;28;20198;-63
2022/06/10 02:53:12;;;;;;;4.00;1.60;;;12.10;99.90;;;;;;5070433;28;20176;-63
2022/06/10 02:55:38;;;;;;;2.65;2.05;;;12.10;99.90;;;;;;5071468;28;20220;-63
2022/06/10 03:01:11;;;;;;;3.05;1.50;;;12.10;99.90;;;;;;5064622;28;20222;-63
2022/06/10 03:04:08;;;;;;;2.60;1.80;;;12.00;99.90;;;;;;5070470;28;20283;-63
2022/06/10 03:06:41;;;;;;;4.13;2.10;;;12.00;99.90;;;;;;5070819;28;20173;-63
2022/06/10 03:09:14;;;;;;;2.60;1.50;;;12.00;99.90;;;;;;5069456;28;20181;-63
2022/06/10 03:11:54;;;;;;;2.88;1.83;;;11.90;99.90;;;;;;5074321;28;20682;-63
2022/06/10 03:14:36;;;;;;;6.90;1.90;;;11.90;99.90;;;;;;5074844;28;20168;-63
2022/06/10 03:17:29;;;;;;;3.55;1.73;;;11.90;99.90;;;;;;5073601;28;20647;-63
2022/06/10 03:20:22;;;;;;;1.83;1.70;;;11.90;99.90;;;;;;5063439;28;20228;-63
2022/06/10 03:23:12;;;;;;;2.25;1.70;;;11.90;99.90;;;;;;5074142;28;20212;-63
2022/06/10 03:25:47;;;;;;;4.60;2.92;;;11.90;99.90;;;;;;5068545;28;20640;-64
2022/06/10 03:28:19;;;;;;;3.20;2.00;;;11.90;99.90;;;;;;5070422;28;20183;-64
2022/06/10 03:30:56;;;;;;;2.30;1.77;;;11.90;99.90;;;;;;5074254;28;20183;-63
2022/06/10 03:33:59;;;;;;;2.35;1.70;;;11.90;99.90;;;;;;5073883;28;20189;-63
2022/06/10 03:36:27;;;;;;;4.70;2.00;;;11.90;99.90;;;;;;5040501;28;20192;-63
2022/06/10 03:38:54;;;;;;;2.95;1.80;;;12.00;99.90;;;;;;5072068;28;20220;-63
2022/06/10 03:41:22;;;;;;;6.30;2.00;;;12.00;99.90;;;;;;5073731;28;20279;-61
2022/06/10 03:43:51;;;;;;;3.53;1.92;;;12.00;99.90;;;;;;5064885;28;20181;-63
2022/06/10 03:46:19;;;;;;;2.60;2.00;;;12.00;99.90;;;;;;5073943;28;20213;-62
2022/06/10 03:48:47;;;;;;;4.60;2.20;;;12.00;99.90;;;;;;5074259;28;20181;-63
2022/06/10 03:51:15;;;;;;;4.65;2.78;;;12.10;99.90;;;;;;5073520;28;20173;-63
2022/06/10 03:53:41;;;;;;;5.72;3.42;;;12.10;99.90;;;;;;5073439;28;20186;-64
2022/06/10 03:56:07;;;;;;;8.52;4.30;;;12.10;99.90;;;;;;5073390;28;20177;-63
2022/06/10 03:58:32;;;;;;;7.78;3.95;;;12.20;99.90;;;;;;5074057;28;20208;-61
2022/06/10 04:00:59;;;;;;;8.50;3.72;;;12.20;99.90;;;;;;5073794;28;20261;-60
2022/06/10 04:03:25;;;;;;;4.38;2.70;;;12.30;99.90;;;;;;5074313;28;20180;-60
2022/06/10 04:05:50;;;;;;;4.38;2.25;;;12.30;99.90;;;;;;5073372;28;20192;-59
2022/06/10 04:08:16;;;;;;;3.83;2.45;;;12.30;99.90;;;;;;5073470;28;20271;-60
2022/06/10 04:10:41;;;;;;;4.65;2.28;;;12.40;99.90;;;;;;5073742;28;20192;-60
2022/06/10 04:13:07;;;;;;;2.92;2.00;;;12.40;99.90;;;;;;5072688;28;20513;-60
2022/06/10 04:15:33;;;;;;;3.70;2.50;;;12.50;99.90;;;;;;5069921;28;20192;-63
2022/06/10 04:17:59;;;;;;;3.05;2.00;;;12.60;99.90;;;;;;5073868;28;20209;-62
2022/06/10 04:20:34;;;;;;;2.20;2.00;;;12.70;99.90;;;;;;5072688;28;20243;-61
2022/06/10 04:23:00;;;;;;;4.40;2.33;;;13.00;99.90;;;;;;5073526;28;20185;-60
2022/06/10 04:25:26;;;;;;;4.85;2.03;;;13.40;99.90;;;;;;5073460;28;20181;-60
2022/06/10 04:27:52;;;;;;;5.18;2.28;;;13.70;99.90;;;;;;5072933;28;20220;-61
2022/06/10 04:30:26;;;;;;;7.93;3.28;;;14.10;99.90;;;;;;5073192;28;20192;-60
2022/06/10 04:32:52;;;;;;;5.68;2.60;;;14.50;99.90;;;;;;5071919;28;20181;-63
2022/06/10 04:35:18;;;;;;;6.13;2.30;;;14.80;99.90;;;;;;5072606;28;20183;-60
2022/06/10 04:37:45;;;;;;;7.57;3.22;;;15.30;99.90;;;;;;5073222;28;20177;-64
2022/06/10 04:40:16;;;;;;;5.38;2.40;;;15.70;99.90;;;;;;5072831;28;20196;-60
2022/06/10 04:42:43;;;;;;;3.30;2.22;;;16.20;99.90;;;;;;5073407;28;20196;-60
2022/06/10 04:45:09;;;;;;;3.45;2.28;;;16.50;99.90;;;;;;5072458;28;20538;-62
2022/06/10 04:47:35;;;;;;;4.93;2.28;;;16.90;99.90;;;;;;5071559;28;20660;-62
2022/06/10 04:50:01;;;;;;;4.78;2.85;;;17.20;99.90;;;;;;5072709;28;20189;-63
2022/06/10 04:52:29;;;;;;;6.05;2.13;;;17.60;99.90;;;;;;5073133;28;20336;-63
2022/06/10 04:54:55;;;;;;;3.05;2.35;;;18.00;99.90;;;;;;5073203;28;20172;-63
2022/06/10 04:57:21;;;;;;;3.10;1.70;;;18.40;99.90;;;;;;5072641;28;20245;-63
2022/06/10 04:59:47;;;;;;;6.13;1.90;;;18.60;99.90;;;;;;5072756;28;20221;-63
2022/06/10 05:02:12;;;;;;;3.95;1.98;;;18.90;99.90;;;;;;5072452;28;20177;-63
2022/06/10 05:04:38;;;;;;;5.75;1.88;;;19.10;99.90;;;;;;5072375;28;20599;-63
2022/06/10 05:07:04;;;;;;;3.13;1.70;;;19.40;99.60;;;;;;5073084;28;20176;-63
2022/06/10 05:09:29;;;;;;;3.70;1.80;;;19.70;99.10;;;;;;5072953;28;20587;-63
2022/06/10 05:11:55;;;;;;;4.35;3.05;;;20.00;98.40;;;;;;5072816;28;20204;-63
2022/06/10 05:14:20;;;;;;;4.65;2.08;;;20.30;97.80;;;;;;5072981;28;20626;-63
2022/06/10 05:16:46;;;;;;;4.57;1.88;;;20.80;97.00;;;;;;5072585;28;20187;-63
2022/06/10 05:19:12;;;;;;;2.50;1.55;;;21.10;96.00;;;;;;5072560;28;20236;-63
2022/06/10 05:21:38;;;;;;;4.82;1.70;;;21.50;95.60;;;;;;5072838;28;20532;-63
2022/06/10 05:24:04;;;;;;;4.07;1.75;;;21.80;94.90;;;;;;5072603;28;20172;-64
2022/06/10 05:26:30;;;;;;;5.22;2.70;;;22.00;94.00;;;;;;5072633;28;20192;-64
2022/06/10 05:28:56;;;;;;;5.07;2.30;;;22.40;93.20;;;;;;5072608;28;20234;-63
2022/06/10 05:31:22;;;;;;;5.78;1.92;;;22.70;92.40;;;;;;5072650;28;20302;-63
2022/06/10 05:36:31;;;;;;;3.38;1.60;;;23.40;90.70;;;;;;5072674;28;20226;-63
2022/06/10 05:38:57;;;;;;;1.58;1.33;;;23.90;89.60;;;;;;5072447;28;20212;-63
2022/06/10 05:44:07;;;;;;;2.92;1.33;;;24.90;85.70;;;;;;5072358;28;20264;-64
2022/06/10 05:46:33;;;;;;;5.78;1.40;;;25.40;82.30;;;;;;5072527;28;20267;-64
2022/06/10 05:48:58;;;;;;;4.20;1.50;;;25.80;79.40;;;;;;5072323;28;20260;-63
2022/06/10 05:51:24;;;;;;;4.57;1.52;;;26.20;76.50;;;;;;5072281;28;20180;-64
2022/06/10 05:53:50;;;;;;;4.38;1.67;;;26.50;74.70;;;;;;5072255;28;20727;-63
2022/06/10 05:56:15;;;;;;;2.22;1.40;;;26.70;73.30;;;;;;5072343;28;20757;-64
2022/06/10 05:58:41;;;;;;;3.17;1.40;;;26.80;72.00;;;;;;5072282;28;20196;-63
2022/06/10 06:01:06;;;;;;;4.53;1.60;;;27.00;71.10;;;;;;5071980;28;20276;-64
2022/06/10 06:03:32;;;;;;;3.22;1.60;;;27.20;68.40;;;;;;5070967;28;20173;-64
2022/06/10 06:05:57;;;;;;;3.67;1.13;;;27.60;66.50;;;;;;5072516;28;20583;-64
2022/06/10 06:08:23;;;;;;;4.85;1.27;;;27.90;64.80;;;;;;5072512;28;20177;-64
2022/06/10 06:10:48;;;;;;;3.42;1.52;;;28.10;63.80;;;;;;5072083;28;20548;-64
2022/06/10 06:13:14;;;;;;;2.75;1.23;;;28.40;62.20;;;;;;5072021;28;20227;-64
2022/06/10 06:15:39;;;;;;;3.03;1.20;;;28.80;61.20;;;;;;5072156;28;20263;-64
2022/06/10 06:18:05;;;;;;;3.80;1.30;;;28.90;59.70;;;;;;5072005;28;20685;-64
2022/06/10 06:20:31;;;;;;;3.35;1.30;;;29.00;58.70;;;;;;5072150;28;20243;-65
2022/06/10 06:22:57;;;;;;;3.33;1.15;;;28.70;58.40;;;;;;5072069;28;20505;-64
2022/06/10 06:25:23;;;;;;;4.65;1.63;;;28.40;59.60;;;;;;5072335;28;20267;-64
2022/06/10 06:27:50;;;;;;;2.50;1.00;;;28.10;58.30;;;;;;5072027;28;20172;-64
2022/06/10 06:30:30;;;;;;;3.95;1.30;;;27.90;59.80;;;;;;5071893;28;20181;-64
2022/06/10 06:32:57;;;;;;;2.95;1.08;;;28.30;60.00;;;;;;5071791;28;20644;-64
2022/06/10 06:35:23;;;;;;;1.70;1.00;;;28.80;59.30;;;;;;5071959;28;20179;-62
2022/06/10 06:37:48;;;;;;;2.92;1.15;;;29.30;57.40;;;;;;5071737;28;20259;-64
2022/06/10 06:40:14;;;;;;;4.45;1.30;;;29.70;56.60;;;;;;5071685;28;20185;-64
2022/06/10 06:42:40;;;;;;;3.35;1.35;;;30.10;56.10;;;;;;5071910;28;20573;-64
2022/06/10 06:45:06;;;;;;;2.47;1.10;;;30.50;55.40;;;;;;5071889;28;20230;-64
2022/06/10 06:47:32;;;;;;;4.25;1.42;;;30.80;54.30;;;;;;5075971;28;20255;-64
2022/06/10 06:49:58;;;;;;;3.72;1.40;;;30.70;54.10;;;;;;5075625;28;20201;-64
2022/06/10 06:52:23;;;;;;;1.65;1.00;;;30.60;54.20;;;;;;5075730;28;20177;-64
2022/06/10 06:54:49;;;;;;;5.20;1.40;;;30.60;54.00;;;;;;5075545;28;20180;-64
2022/06/10 06:57:15;;;;;;;1.50;1.02;;;30.50;53.30;;;;;;5075611;28;20242;-64
2022/06/10 06:59:40;;;;;;;2.45;1.35;;;30.40;54.70;;;;;;5075299;28;20216;-62
2022/06/10 07:02:06;;;;;;;5.43;1.30;;;30.40;55.30;;;;;;5075309;28;20549;-61
2022/06/10 07:04:32;;;;;;;2.22;1.20;;;30.40;53.90;;;;;;5075387;28;20181;-61
2022/06/10 07:06:57;;;;;;;3.15;1.40;;;30.10;53.70;;;;;;5075286;28;20177;-61
2022/06/10 07:09:23;;;;;;;5.63;1.67;;;29.90;54.50;;;;;;5075288;28;20713;-61
2022/06/10 07:11:48;;;;;;;3.60;1.00;;;29.40;54.80;;;;;;5075316;28;20577;-61
2022/06/10 07:14:14;;;;;;;4.25;1.33;;;29.20;55.40;;;;;;5075181;28;20252;-61
2022/06/10 07:16:41;;;;;;;3.35;1.38;;;29.60;55.50;;;;;;5075171;28;20215;-61
2022/06/10 07:19:08;;;;;;;1.98;0.95;;;29.90;55.10;;;;;;5074701;28;20350;-61
2022/06/10 07:21:33;;;;;;;5.68;1.60;;;30.40;54.30;;;;;;5075153;28;20183;-61
2022/06/10 07:23:59;;;;;;;4.30;1.52;;;31.10;53.40;;;;;;5074996;28;20177;-61
2022/06/10 07:26:24;;;;;;;2.15;1.00;;;31.70;53.00;;;;;;5075099;28;20180;-61
2022/06/10 07:28:50;;;;;;;2.65;1.05;;;32.10;51.90;;;;;;5074906;28;20506;-61
2022/06/10 07:31:16;;;;;;;2.80;1.35;;;31.90;51.60;;;;;;5074950;28;20183;-61
2022/06/10 07:33:42;;;;;;;4.25;1.65;;;32.00;50.90;;;;;;5074993;28;20181;-61
2022/06/10 07:36:10;;;;;;;4.78;1.30;;;32.00;51.00;;;;;;5074700;28;20169;-61
2022/06/10 07:38:37;;;;;;;3.05;1.13;;;32.10;51.00;;;;;;5074915;28;20287;-61
2022/06/10 07:43:46;;;;;;;1.65;1.10;;;31.90;50.80;;;;;;5074608;28;20337;-61
2022/06/10 07:46:15;;;;;;;5.40;1.65;;;31.60;50.90;;;;;;5074550;28;20247;-61
2022/06/10 07:48:41;;;;;;;3.15;1.40;;;31.50;50.70;;;;;;5074546;28;20185;-61
2022/06/10 07:51:07;;;;;;;1.73;1.30;;;31.30;50.60;;;;;;5074128;28;20203;-60
2022/06/10 07:53:33;;;;;;;3.65;1.27;;;31.30;50.90;;;;;;5074245;28;20639;-61
2022/06/10 07:55:59;;;;;;;3.97;1.20;;;31.50;51.30;;;;;;5073872;28;20173;-62
2022/06/10 07:58:25;;;;;;;2.95;1.40;;;31.60;50.40;;;;;;5074245;28;20212;-63
2022/06/10 08:00:51;;;;;;;4.50;1.27;;;31.70;51.40;;;;;;5072885;28;20523;-62
2022/06/10 08:03:17;;;;;;;5.22;1.20;;;31.70;50.80;;;;;;5074181;28;20241;-62
2022/06/10 08:05:43;;;;;;;2.45;1.20;;;31.60;50.50;;;;;;5056435;28;20177;-63
2022/06/10 08:08:11;;;;;;;3.55;1.27;;;31.30;50.20;;;;;;5074022;28;20181;-62
2022/06/10 08:10:37;;;;;;;5.28;1.13;;;31.00;51.40;;;;;;5073751;28;20193;-62
2022/06/10 08:13:04;;;;;;;3.42;1.42;;;31.00;51.90;;;;;;5073803;28;20177;-63
2022/06/10 08:15:31;;;;;;;2.33;1.23;;;31.10;51.80;;;;;;5073530;28;20207;-62
2022/06/10 08:17:57;;;;;;;2.40;1.60;;;31.00;51.80;;;;;;5073918;28;20201;-62
2022/06/10 08:23:19;;;;;;;3.20;1.35;;;30.60;52.60;;;;;;5074394;28;20272;-62
2022/06/10 08:25:45;;;;;;;2.55;1.30;;;30.30;52.70;;;;;;5072785;28;20695;-62
2022/06/10 08:28:11;;;;;;;3.30;1.10;;;30.50;52.60;;;;;;5072644;28;20281;-62
2022/06/10 08:30:37;;;;;;;1.02;1.02;;;30.70;52.50;;;;;;5073937;28;20173;-62
2022/06/10 08:33:03;;;;;;;5.68;1.33;;;30.30;52.20;;;;;;5073820;28;20701;-63
2022/06/10 08:35:33;;;;;;;1.73;1.33;;;29.60;52.40;;;;;;5072750;28;20193;-62
2022/06/10 08:37:59;;;;;;;3.55;1.05;;;29.50;52.40;;;;;;5073415;28;20670;-62
2022/06/10 08:40:40;;;;;;;2.10;1.23;;;29.80;52.50;;;;;;5073425;28;20181;-62
2022/06/10 08:43:24;;;;;;;2.90;1.35;;;29.60;52.70;;;;;;5072930;28;20186;-64
2022/06/10 08:46:04;;;;;;;7.25;1.42;;;29.40;53.70;;;;;;5071514;28;20650;-63
2022/06/10 08:49:05;;;;;;;3.75;0.98;;;29.50;53.30;;;;;;5067829;28;20174;-62
2022/06/10 08:51:56;;;;;;;2.50;1.02;;;29.60;53.70;;;;;;5066437;28;20180;-63
2022/06/10 08:54:43;;;;;;;5.65;1.20;;;30.00;51.80;;;;;;5053326;28;20180;-62
2022/06/10 08:57:32;;;;;;;2.38;1.30;;;29.90;50.50;;;;;;5062756;28;20581;-62
2022/06/10 09:00:00;;;;;;;4.10;1.05;;;29.40;51.70;;;;;;5072549;28;20213;-62
2022/06/10 09:02:28;;;;;;;2.85;1.38;;;29.50;51.60;;;;;;5073094;28;20270;-62
2022/06/10 09:05:06;;;;;;;1.83;0.88;;;29.60;51.20;;;;;;5071899;28;20657;-62
2022/06/10 09:07:48;;;;;;;2.70;0.88;;;29.30;50.10;;;;;;5071466;28;20172;-62
2022/06/10 09:10:22;;;;;;;1.95;1.00;;;29.10;49.70;;;;;;5072775;28;20196;-62
2022/06/10 09:13:18;;;;;;;1.55;0.90;;;29.20;50.30;;;;;;5072777;28;20179;-62
2022/06/10 09:16:05;;;;;;;2.67;1.00;;;29.30;48.40;;;;;;5072676;28;20184;-62
2022/06/10 09:18:40;;;;;;;2.45;1.00;;;29.20;49.20;;;;;;5072285;28;20585;-62
2022/06/10 09:21:16;;;;;;;1.25;0.75;;;29.10;50.90;;;;;;5072110;28;20247;-62
2022/06/10 09:23:44;;;;;;;6.75;1.40;;;29.00;50.50;;;;;;5062094;28;20180;-62
2022/06/10 09:26:19;;;;;;;2.25;1.05;;;28.90;52.80;;;;;;5072019;28;20192;-62
2022/06/10 09:28:44;;;;;;;2.45;1.00;;;29.20;53.60;;;;;;5070890;28;20192;-62
2022/06/10 09:31:34;;;;;;;4.25;1.75;;;29.60;52.50;;;;;;5066790;28;20534;-62
2022/06/10 09:34:09;;;;;;;2.08;1.27;;;30.00;53.40;;;;;;5064077;28;20177;-62
2022/06/10 09:36:41;;;;;;;2.33;1.00;;;30.30;51.00;;;;;;5055977;28;20181;-62
2022/06/10 09:42:18;;;;;;;3.17;1.27;;;30.00;51.20;;;;;;5071500;28;20179;-61
2022/06/10 09:45:08;;;;;;;4.20;1.23;;;29.90;51.80;;;;;;5071783;28;20219;-62
2022/06/10 09:47:55;;;;;;;2.78;1.45;;;29.60;50.40;;;;;;5055453;28;20189;-62
2022/06/10 09:50:31;;;;;;;3.30;1.13;;;29.70;49.80;;;;;;5052441;28;20185;-63
2022/06/10 09:53:22;;;;;;;3.88;1.27;;;30.00;50.30;;;;;;5058063;28;20172;-63
2022/06/10 09:56:23;;;;;;;2.55;1.02;;;29.60;49.90;;;;;;5061517;28;20185;-64
2022/06/10 09:59:14;;;;;;;1.20;0.88;;;29.60;49.70;;;;;;5070689;28;20242;-63
2022/06/10 10:01:52;;;;;;;1.90;1.13;;;29.70;50.50;;;;;;5067614;28;20184;-62
2022/06/10 10:04:46;;;;;;;3.08;1.08;;;29.70;50.40;;;;;;5066694;28;20228;-63
2022/06/10 10:07:32;;;;;;;3.03;1.45;;;30.00;49.00;;;;;;5072104;28;20177;-63
2022/06/10 10:10:21;;;;;;;3.38;1.15;;;30.40;47.70;;;;;;5071921;28;20192;-63
2022/06/10 10:12:52;;;;;;;1.20;0.93;;;30.40;48.80;;;;;;5071979;28;20664;-63
2022/06/10 10:15:32;;;;;;;3.97;1.10;;;30.10;48.00;;;;;;5071716;28;20245;-63
2022/06/10 10:18:16;;;;;;;5.43;1.38;;;29.80;48.00;;;;;;5071481;28;20636;-63
2022/06/10 10:21:02;;;;;;;3.90;1.35;;;29.40;48.80;;;;;;5069913;28;20521;-63
2022/06/10 10:23:39;;;;;;;1.85;1.10;;;29.20;50.10;;;;;;5071795;28;20639;-62
2022/06/10 10:26:13;;;;;;;3.40;1.30;;;29.10;49.40;;;;;;5071773;28;20181;-62
2022/06/10 10:28:42;;;;;;;3.03;0.95;;;29.50;49.70;;;;;;5072130;28;20191;-63
2022/06/10 10:31:26;;;;;;;4.82;1.13;;;29.80;50.70;;;;;;5078078;28;20537;-60
2022/06/10 10:33:52;;;;;;;3.88;1.20;;;29.80;48.70;;;;;;5071673;28;20207;-60
2022/06/10 10:36:26;;;;;;;3.92;1.10;;;29.60;48.30;;;;;;5071655;28;20202;-60
2022/06/10 10:38:53;;;;;;;3.70;1.23;;;29.70;50.30;;;;;;5071525;28;20203;-61
2022/06/10 10:41:42;;;;;;;2.28;1.00;;;29.90;49.70;;;;;;5071576;28;20184;-60
2022/06/10 10:44:34;;;;;;;2.58;1.10;;;29.80;49.60;;;;;;5071490;28;20173;-61
2022/06/10 10:47:08;;;;;;;1.90;1.27;;;29.60;49.50;;;;;;5071264;28;20234;-60
2022/06/10 10:49:38;;;;;;;4.28;1.38;;;29.30;49.70;;;;;;5070196;28;20579;-60
2022/06/10 10:52:38;;;;;;;4.00;1.08;;;29.50;49.50;;;;;;5071286;28;20185;-61
2022/06/10 10:55:13;;;;;;;2.92;1.05;;;29.50;48.40;;;;;;5069122;28;20235;-61
2022/06/10 10:57:57;;;;;;;2.92;1.15;;;29.30;47.60;;;;;;5071471;28;20267;-61
2022/06/10 11:00:42;;;;;;;0.88;0.88;;;29.30;48.70;;;;;;5071299;28;20326;-61
2022/06/10 11:03:26;;;;;;;2.90;1.30;;;29.40;47.90;;;;;;5071464;28;20173;-61
2022/06/10 11:05:53;;;;;;;4.60;1.75;;;29.60;49.40;;;;;;5070979;28;20180;-62
2022/06/10 11:08:32;;;;;;;4.07;1.30;;;29.60;49.20;;;;;;5070107;28;20224;-61
2022/06/10 11:11:23;;;;;;;4.45;1.35;;;29.60;50.50;;;;;;5051244;28;20659;-61
2022/06/10 11:14:05;;;;;;;2.97;1.20;;;29.40;49.40;;;;;;5051361;28;20188;-62
2022/06/10 11:16:56;;;;;;;2.20;0.95;;;29.40;51.10;;;;;;5055444;28;20253;-60
2022/06/10 11:19:57;;;;;;;2.60;1.15;;;29.70;49.60;;;;;;5070797;28;20243;-61
2022/06/10 11:22:39;;;;;;;3.13;1.10;;;30.00;49.70;;;;;;5071000;28;20192;-61
2022/06/10 11:25:14;;;;;;;2.40;0.95;;;30.10;47.90;;;;;;5070223;28;20193;-61
2022/06/10 11:27:49;;;;;;;3.53;1.08;;;30.20;47.20;;;;;;5071038;28;20176;-61
2022/06/10 11:30:17;;;;;;;4.00;1.30;;;30.10;47.70;;;;;;5071129;28;20180;-61
2022/06/10 11:33:00;;;;;;;3.00;1.30;;;30.10;47.90;;;;;;5074038;28;20267;-61
2022/06/10 11:35:31;;;;;;;3.03;1.20;;;30.00;47.80;;;;;;5074979;28;20177;-61
2022/06/10 11:38:15;;;;;;;3.53;1.30;;;30.20;48.60;;;;;;5074590;28;20193;-61
2022/06/10 11:40:50;;;;;;;3.13;0.95;;;30.10;49.40;;;;;;5074813;28;20267;-61
2022/06/10 11:43:35;;;;;;;4.25;1.08;;;30.20;50.10;;;;;;5074838;28;20177;-61
2022/06/10 11:46:33;;;;;;;2.63;1.15;;;30.50;50.10;;;;;;5074568;28;20176;-61
2022/06/10 11:49:24;;;;;;;2.65;1.08;;;30.40;48.50;;;;;;5074320;28;20176;-61
2022/06/10 11:52:03;;;;;;;2.83;1.20;;;30.40;47.60;;;;;;5074530;28;20184;-63
2022/06/10 11:54:41;;;;;;;1.20;0.85;;;30.60;47.10;;;;;;5074138;28;20265;-63
2022/06/10 12:00:17;;;;;;;4.53;1.20;;;30.40;47.10;;;;;;5073941;28;20458;-63
2022/06/10 12:02:58;;;;;;;2.90;1.08;;;30.40;48.00;;;;;;5064091;28;20188;-62
2022/06/10 12:06:03;;;;;;;4.15;1.40;;;30.40;47.10;;;;;;5074032;28;20624;-63
2022/06/10 12:08:39;;;;;;;2.72;1.20;;;30.40;47.00;;;;;;5074378;28;20165;-63
2022/06/10 12:11:25;;;;;;;3.10;1.20;;;30.40;46.60;;;;;;5073891;28;20212;-63
2022/06/10 12:14:23;;;;;;;2.83;1.20;;;30.50;47.50;;;;;;5066390;28;20189;-61
2022/06/10 12:16:58;;;;;;;3.85;1.98;;;30.40;45.30;;;;;;5049931;28;20184;-62
2022/06/10 12:19:29;;;;;;;2.58;1.27;;;30.30;46.50;;;;;;5073392;28;20231;-64
2022/06/10 12:21:54;;;;;;;2.22;1.05;;;30.10;46.40;;;;;;5073365;28;20696;-64
2022/06/10 12:24:20;;;;;;;2.45;1.20;;;29.90;46.60;;;;;;5074108;28;20322;-64
2022/06/10 12:27:00;;;;;;;5.35;1.42;;;29.40;46.40;;;;;;5074030;28;20264;-65
2022/06/10 12:29:41;;;;;;;5.95;1.63;;;29.20;48.50;;;;;;5073019;28;20538;-65
2022/06/10 12:32:33;;;;;;;1.45;0.90;;;29.10;49.00;;;;;;5073299;28;20260;-62
2022/06/10 12:35:16;;;;;;;3.40;1.20;;;29.20;48.70;;;;;;5073453;28;20271;-64
2022/06/10 12:38:04;;;;;;;2.58;1.13;;;29.60;48.70;;;;;;5064605;28;20191;-64
2022/06/10 12:40:42;;;;;;;3.85;1.30;;;29.70;47.20;;;;;;5073267;28;20245;-62
2022/06/10 12:43:18;;;;;;;3.60;1.20;;;29.90;48.30;;;;;;5062287;28;20260;-62
2022/06/10 12:46:02;;;;;;;2.58;1.52;;;30.10;47.50;;;;;;5062604;28;20177;-63
2022/06/10 12:48:31;;;;;;;2.10;1.20;;;30.40;47.30;;;;;;5064647;28;20223;-63
2022/06/10 12:51:12;;;;;;;2.63;1.05;;;30.50;46.40;;;;;;5063038;28;20177;-63
2022/06/10 12:54:05;;;;;;;14.75;1.70;;;30.40;47.00;;;;;;5058036;28;20181;-62
2022/06/10 12:56:34;;;;;;;1.10;1.00;;;30.10;46.90;;;;;;5059081;28;20538;-62
2022/06/10 12:59:06;;;;;;;5.82;1.20;;;29.80;47.40;;;;;;5072563;28;20567;-62
2022/06/10 13:01:32;;;;;;;5.05;1.35;;;29.80;48.20;;;;;;5073180;28;20185;-62
2022/06/10 13:04:20;;;;;;;4.65;1.80;;;29.90;48.70;;;;;;5072970;28;20196;-63
2022/06/10 13:07:03;;;;;;;3.00;1.30;;;29.90;47.50;;;;;;5052494;28;20189;-63
2022/06/10 13:09:36;;;;;;;3.10;1.40;;;30.00;47.80;;;;;;5072892;28;20172;-64
2022/06/10 13:12:08;;;;;;;24.15;2.33;;;29.90;46.90;;;;;;5072678;28;20242;-62
2022/06/10 13:14:42;;;;;;;10.43;1.92;;;29.90;47.90;;;;;;5072868;28;20525;-64
2022/06/10 13:17:29;;;;;;;1.67;1.13;;;29.90;47.60;;;;;;5072415;28;20623;-62
2022/06/10 13:19:55;;;;;;;2.45;1.15;;;29.90;47.50;;;;;;5072336;28;20702;-62
2022/06/10 13:22:21;;;;;;;4.53;1.10;;;30.00;47.70;;;;;;5072596;28;20212;-62
2022/06/10 13:24:55;;;;;;;1.17;1.00;;;29.90;45.70;;;;;;5072869;28;20230;-61
2022/06/10 13:27:25;;;;;;;1.60;0.80;;;29.40;47.20;;;;;;5072203;28;20180;-62
2022/06/10 13:29:53;;;;;;;2.55;0.80;;;29.40;47.30;;;;;;5072511;28;20215;-62
2022/06/10 13:32:18;;;;;;;2.42;1.00;;;29.40;48.00;;;;;;5071677;28;20185;-61
2022/06/10 13:35:01;;;;;;;3.00;0.88;;;29.30;48.50;;;;;;5073027;28;20176;-62
2022/06/10 13:37:35;;;;;;;2.25;0.90;;;29.20;48.90;;;;;;5072764;28;20212;-61
2022/06/10 13:40:05;;;;;;;2.80;1.40;;;28.90;47.50;;;;;;5072595;28;20225;-61